createdAt,value
2022-11-02T00:02:19.559Z,11.60
2022-11-02T00:04:46.624Z,11.60
2022-11-02T00:07:13.751Z,11.60
2022-11-02T00:09:40.747Z,11.50
2022-11-02T00:12:08.130Z,11.50
2022-11-02T00:14:35.106Z,11.50
2022-11-02T00:17:02.262Z,11.50
2022-11-02T00:19:30.434Z,11.50
2022-11-02T00:21:59.024Z,11.50
2022-11-02T00:24:26.109Z,11.50
2022-11-02T00:26:54.673Z,11.50
2022-11-02T00:29:23.775Z,11.50
2022-11-02T00:31:51.005Z,11.50
2022-11-02T00:34:18.039Z,11.50
2022-11-02T00:36:45.140Z,11.40
2022-11-02T00:39:12.164Z,11.40
2022-11-02T00:41:39.134Z,11.40
2022-11-02T00:44:06.159Z,11.40
2022-11-02T00:46:33.211Z,11.50
2022-11-02T00:49:00.245Z,11.40
2022-11-02T00:51:27.252Z,11.40
2022-11-02T00:53:54.276Z,11.40
2022-11-02T00:56:21.296Z,11.40
2022-11-02T00:58:48.263Z,11.40
2022-11-02T01:01:15.531Z,11.50
2022-11-02T01:03:42.730Z,11.50
2022-11-02T01:06:14.889Z,11.50
2022-11-02T01:08:42.081Z,11.50
2022-11-02T01:11:17.820Z,11.50
2022-11-02T01:13:45.497Z,11.50
2022-11-02T01:16:14.455Z,11.50
2022-11-02T01:18:41.616Z,11.50
2022-11-02T01:21:09.191Z,11.50
2022-11-02T01:23:37.805Z,11.50
2022-11-02T01:26:06.975Z,11.50
2022-11-02T01:28:34.496Z,11.50
2022-11-02T01:31:01.686Z,11.50
2022-11-02T01:33:29.148Z,11.50
2022-11-02T01:35:56.501Z,11.50
2022-11-02T01:38:23.731Z,11.50
2022-11-02T01:40:51.235Z,11.50
2022-11-02T01:43:22.305Z,11.50
2022-11-02T01:45:53.034Z,11.50
2022-11-02T01:48:27.133Z,11.50
2022-11-02T01:50:54.475Z,11.50
2022-11-02T01:53:21.553Z,11.50
2022-11-02T01:55:48.815Z,11.50
2022-11-02T01:58:15.960Z,11.50
2022-11-02T02:00:43.448Z,11.50
2022-11-02T02:03:17.060Z,11.50
2022-11-02T02:06:09.588Z,11.50
2022-11-02T02:08:40.994Z,11.50
2022-11-02T02:11:38.129Z,11.50
2022-11-02T02:14:16.278Z,11.60
2022-11-02T02:17:15.561Z,11.60
2022-11-02T02:20:12.249Z,11.60
2022-11-02T02:22:57.716Z,11.50
2022-11-02T02:25:58.949Z,11.50
2022-11-02T02:28:41.695Z,11.50
2022-11-02T02:31:33.157Z,11.50
2022-11-02T02:34:20.999Z,11.50
2022-11-02T02:36:57.348Z,11.50
2022-11-02T02:39:39.531Z,11.50
2022-11-02T02:42:36.630Z,11.50
2022-11-02T02:45:30.336Z,11.50
2022-11-02T02:48:14.895Z,11.60
2022-11-02T02:50:51.868Z,11.60
2022-11-02T02:53:26.415Z,11.60
2022-11-02T02:55:54.305Z,11.60
2022-11-02T02:58:26.229Z,11.60
2022-11-02T03:00:54.768Z,11.60
2022-11-02T03:03:25.482Z,11.60
2022-11-02T03:06:13.577Z,11.60
2022-11-02T03:08:43.534Z,11.50
2022-11-02T03:11:15.789Z,11.50
2022-11-02T03:14:03.605Z,11.50
2022-11-02T03:16:51.243Z,11.60
2022-11-02T03:19:30.779Z,11.50
2022-11-02T03:22:06.293Z,11.60
2022-11-02T03:24:43.606Z,11.60
2022-11-02T03:27:39.959Z,11.50
2022-11-02T03:30:17.779Z,11.60
2022-11-02T03:32:59.894Z,11.60
2022-11-02T03:35:53.681Z,11.60
2022-11-02T03:38:35.408Z,11.60
2022-11-02T03:41:05.216Z,11.60
2022-11-02T03:43:35.612Z,11.70
2022-11-02T03:46:04.432Z,11.60
2022-11-02T03:48:36.187Z,11.60
2022-11-02T03:51:07.235Z,11.60
2022-11-02T03:53:43.481Z,11.70
2022-11-02T03:56:25.053Z,11.60
2022-11-02T03:58:52.140Z,11.60
2022-11-02T04:01:21.144Z,11.70
2022-11-02T04:03:48.616Z,11.70
2022-11-02T04:06:16.127Z,11.70
2022-11-02T04:08:46.488Z,11.70
2022-11-02T04:11:32.837Z,11.70
2022-11-02T04:14:18.685Z,11.70
2022-11-02T04:16:45.707Z,11.70
2022-11-02T04:19:27.669Z,11.70
2022-11-02T04:22:14.282Z,11.60
2022-11-02T04:25:00.648Z,11.60
2022-11-02T04:27:27.690Z,11.60
2022-11-02T04:29:54.737Z,11.60
2022-11-02T04:32:48.054Z,11.50
2022-11-02T04:35:15.218Z,11.50
2022-11-02T04:38:02.655Z,11.40
2022-11-02T04:40:30.173Z,11.40
2022-11-02T04:42:57.352Z,11.30
2022-11-02T04:45:24.430Z,11.30
2022-11-02T04:47:51.451Z,11.30
2022-11-02T04:50:18.521Z,11.30
2022-11-02T04:52:45.544Z,11.20
2022-11-02T04:55:12.507Z,11.20
2022-11-02T04:57:39.460Z,11.20
2022-11-02T05:00:09.671Z,11.20
2022-11-02T05:02:36.784Z,11.20
2022-11-02T05:05:06.282Z,11.20
2022-11-02T05:07:33.319Z,11.10
2022-11-02T05:10:00.295Z,11.10
2022-11-02T05:12:29.344Z,11.10
2022-11-02T05:14:56.653Z,11.10
2022-11-02T05:17:23.861Z,11.10
2022-11-02T05:19:50.873Z,11.00
2022-11-02T05:22:17.892Z,11.00
2022-11-02T05:24:44.917Z,11.00
2022-11-02T05:27:11.847Z,11.00
2022-11-02T05:29:38.899Z,10.90
2022-11-02T05:32:06.373Z,10.90
2022-11-02T05:34:33.403Z,10.90
2022-11-02T05:37:00.446Z,10.90
2022-11-02T05:39:27.351Z,10.90
2022-11-02T05:41:54.516Z,10.90
2022-11-02T05:44:21.587Z,10.90
2022-11-02T05:46:48.641Z,11.00
2022-11-02T05:49:15.887Z,11.00
2022-11-02T05:51:44.211Z,10.90
2022-11-02T05:54:11.155Z,10.90
2022-11-02T05:56:38.178Z,10.90
2022-11-02T05:59:05.171Z,10.80
2022-11-02T06:01:32.377Z,10.80
2022-11-02T06:03:59.487Z,10.80
2022-11-02T06:06:26.594Z,10.70
2022-11-02T06:08:53.514Z,10.70
2022-11-02T06:11:20.594Z,10.70
2022-11-02T06:13:51.245Z,10.70
2022-11-02T06:16:22.625Z,10.70
2022-11-02T06:18:51.028Z,10.70
2022-11-02T06:21:18.036Z,10.70
2022-11-02T06:23:48.474Z,10.70
2022-11-02T06:26:15.909Z,10.70
2022-11-02T06:28:43.176Z,10.60
2022-11-02T06:31:10.262Z,10.70
2022-11-02T06:33:37.304Z,10.70
2022-11-02T06:36:04.634Z,10.80
2022-11-02T06:38:31.661Z,10.90
2022-11-02T06:41:04.274Z,11.30
2022-11-02T06:43:31.390Z,11.30
2022-11-02T06:45:59.282Z,11.40
2022-11-02T06:48:32.982Z,11.40
2022-11-02T06:51:01.974Z,11.50
2022-11-02T06:53:29.023Z,11.50
2022-11-02T06:55:57.427Z,11.60
2022-11-02T06:58:25.023Z,11.60
2022-11-02T07:00:58.926Z,11.70
2022-11-02T07:03:26.836Z,11.90
2022-11-02T07:05:54.567Z,12.00
2022-11-02T07:08:22.811Z,12.10
2022-11-02T07:10:50.447Z,12.30
2022-11-02T07:13:17.532Z,12.40
2022-11-02T07:15:44.507Z,12.50
2022-11-02T07:18:13.327Z,12.50
2022-11-02T07:20:40.318Z,12.50
2022-11-02T07:23:07.815Z,12.60
2022-11-02T07:25:36.252Z,12.60
2022-11-02T07:28:04.130Z,12.70
2022-11-02T07:30:34.318Z,12.70
2022-11-02T07:33:01.498Z,12.70
2022-11-02T07:35:28.700Z,12.80
2022-11-02T07:38:06.246Z,12.80
2022-11-02T07:40:35.385Z,12.90
2022-11-02T07:43:04.483Z,12.90
2022-11-02T07:45:33.136Z,13.00
2022-11-02T07:48:00.138Z,13.10
2022-11-02T07:50:27.828Z,13.10
2022-11-02T07:52:57.553Z,13.20
2022-11-02T07:55:27.863Z,13.20
2022-11-02T07:57:57.482Z,13.30
2022-11-02T08:00:26.416Z,13.50
2022-11-02T08:03:01.692Z,13.50
2022-11-02T08:05:30.308Z,13.60
2022-11-02T08:08:01.877Z,13.80
2022-11-02T08:10:35.354Z,13.80
2022-11-02T08:13:06.139Z,13.90
2022-11-02T08:15:33.249Z,13.90
2022-11-02T08:18:06.563Z,13.80
2022-11-02T08:20:36.147Z,13.90
2022-11-02T08:23:04.252Z,13.90
2022-11-02T08:25:32.033Z,14.00
2022-11-02T08:28:00.193Z,14.10
2022-11-02T08:30:28.825Z,14.20
2022-11-02T08:32:57.306Z,14.30
2022-11-02T08:35:24.840Z,14.30
2022-11-02T08:38:00.795Z,14.40
2022-11-02T08:40:28.096Z,14.50
2022-11-02T08:43:05.307Z,14.50
2022-11-02T08:46:00.511Z,14.60
2022-11-02T08:48:20.829Z,14.50
2022-11-02T08:50:49.546Z,14.50
2022-11-02T08:53:17.274Z,14.60
2022-11-02T08:55:44.531Z,14.60
2022-11-02T08:58:12.057Z,14.70
2022-11-02T09:00:39.170Z,14.80
2022-11-02T09:03:08.097Z,14.90
2022-11-02T09:05:41.005Z,15.00
2022-11-02T09:08:12.468Z,15.10
2022-11-02T09:10:40.367Z,15.20
2022-11-02T09:13:10.213Z,15.20
2022-11-02T09:15:38.183Z,15.30
2022-11-02T09:18:07.039Z,15.40
2022-11-02T09:20:35.213Z,15.50
2022-11-02T09:23:02.480Z,15.60
2022-11-02T09:25:29.671Z,15.60
2022-11-02T09:27:58.327Z,15.70
2022-11-02T09:30:27.632Z,15.90
2022-11-02T09:33:03.890Z,15.90
2022-11-02T09:35:33.596Z,16.00
2022-11-02T09:38:01.423Z,16.10
2022-11-02T09:40:31.833Z,16.20
2022-11-02T09:43:20.276Z,16.30
2022-11-02T09:45:56.388Z,16.40
2022-11-02T09:48:34.654Z,16.60
2022-11-02T09:51:16.285Z,16.70
2022-11-02T09:53:59.940Z,16.80
2022-11-02T09:56:27.517Z,16.90
2022-11-02T09:59:26.541Z,17.00
2022-11-02T10:02:20.971Z,17.20
2022-11-02T10:05:33.494Z,17.30
2022-11-02T10:08:09.744Z,17.40
2022-11-02T10:10:56.936Z,17.50
2022-11-02T10:13:44.975Z,17.60
2022-11-02T10:16:36.946Z,17.60
2022-11-02T10:19:12.804Z,17.70
2022-11-02T10:21:42.831Z,17.70
2022-11-02T10:24:35.245Z,17.80
2022-11-02T10:27:09.106Z,18.00
2022-11-02T10:29:55.347Z,18.00
2022-11-02T10:32:22.473Z,18.20
2022-11-02T10:34:58.841Z,18.30
2022-11-02T10:37:59.770Z,18.30
2022-11-02T10:40:55.546Z,18.40
2022-11-02T10:43:32.824Z,18.50
2022-11-02T10:46:06.092Z,18.60
2022-11-02T10:48:51.874Z,18.70
2022-11-02T10:51:20.151Z,18.70
2022-11-02T10:53:50.462Z,18.80
2022-11-02T10:56:24.403Z,18.90
2022-11-02T10:59:16.106Z,18.90
2022-11-02T11:01:52.014Z,19.10
2022-11-02T11:04:29.089Z,19.10
2022-11-02T11:06:58.301Z,19.20
2022-11-02T11:09:47.062Z,19.30
2022-11-02T11:12:38.630Z,19.40
2022-11-02T11:20:43.703Z,19.60
2022-11-02T11:23:21.351Z,19.60
2022-11-02T11:26:06.505Z,19.60
2022-11-02T11:28:41.227Z,19.70
2022-11-02T11:31:12.543Z,19.70
2022-11-02T11:33:51.535Z,19.70
2022-11-02T11:36:31.673Z,19.70
2022-11-02T11:39:08.305Z,19.70
2022-11-02T11:41:40.360Z,19.70
2022-11-02T11:44:14.452Z,19.70
2022-11-02T11:46:49.151Z,19.70
2022-11-02T11:49:36.054Z,19.70
2022-11-02T11:52:17.963Z,19.80
2022-11-02T11:54:54.022Z,19.90
2022-11-02T11:57:24.273Z,19.90
2022-11-02T11:59:58.677Z,20.00
2022-11-02T12:02:41.024Z,20.00
2022-11-02T12:05:21.025Z,20.00
2022-11-02T12:08:20.528Z,20.00
2022-11-02T12:11:07.926Z,20.00
2022-11-02T12:13:59.050Z,20.00
2022-11-02T12:17:03.648Z,20.00
2022-11-02T12:19:54.263Z,20.00
2022-11-02T12:22:36.554Z,20.00
2022-11-02T12:25:37.715Z,20.00
2022-11-02T12:28:56.816Z,20.00
2022-11-02T12:31:32.331Z,20.10
2022-11-02T12:34:08.484Z,20.10
2022-11-02T12:37:35.392Z,20.10
2022-11-02T12:40:21.086Z,20.10
2022-11-02T12:43:20.818Z,20.00
2022-11-02T12:46:13.675Z,20.00
2022-11-02T12:48:56.721Z,20.00
2022-11-02T12:51:39.568Z,19.90
2022-11-02T12:54:27.284Z,19.90
2022-11-02T12:56:54.773Z,19.80
2022-11-02T12:59:27.755Z,19.80
2022-11-02T13:02:36.835Z,19.80
2022-11-02T13:05:12.850Z,19.70
2022-11-02T13:07:45.770Z,19.70
2022-11-02T13:10:24.126Z,19.60
2022-11-02T13:12:57.209Z,19.60
2022-11-02T13:15:27.098Z,19.60
2022-11-02T13:17:57.806Z,19.50
2022-11-02T13:20:46.139Z,19.40
2022-11-02T13:23:26.512Z,19.40
2022-11-02T13:26:00.591Z,19.40
2022-11-02T13:28:44.830Z,19.30
2022-11-02T13:31:17.808Z,19.30
2022-11-02T13:33:50.785Z,19.30
2022-11-02T13:36:18.855Z,19.30
2022-11-02T13:38:55.949Z,19.20
2022-11-02T13:41:36.583Z,19.10
2022-11-02T13:44:06.790Z,19.00
2022-11-02T13:46:47.646Z,18.90
2022-11-02T13:49:25.673Z,18.70
2022-11-02T13:52:00.838Z,18.60
2022-11-02T13:54:45.505Z,18.50
2022-11-02T13:57:46.718Z,18.40
2022-11-02T14:00:38.104Z,18.20
2022-11-02T14:03:19.514Z,18.10
2022-11-02T14:05:54.667Z,18.00
2022-11-02T14:08:47.713Z,17.90
2022-11-02T14:11:14.701Z,17.80
2022-11-02T14:13:57.374Z,17.80
2022-11-02T14:16:43.035Z,17.70
2022-11-02T14:19:20.765Z,17.60
2022-11-02T14:21:51.223Z,17.50
2022-11-02T14:24:36.366Z,17.50
2022-11-02T14:27:12.562Z,17.40
2022-11-02T14:29:42.563Z,17.40
2022-11-02T14:32:21.220Z,17.30
2022-11-02T14:35:18.838Z,17.30
2022-11-02T14:37:45.806Z,17.20
2022-11-02T14:40:41.825Z,17.20
2022-11-02T14:43:30.465Z,17.10
2022-11-02T14:46:11.493Z,17.00
2022-11-02T14:49:05.536Z,17.00
2022-11-02T14:51:35.928Z,16.90
2022-11-02T14:54:16.841Z,16.90
2022-11-02T14:56:48.317Z,16.90
2022-11-02T14:59:21.716Z,16.80
2022-11-02T15:01:56.871Z,16.70
2022-11-02T15:04:25.900Z,16.70
2022-11-02T15:06:57.025Z,16.60
2022-11-02T15:09:57.905Z,16.50
2022-11-02T15:12:41.186Z,16.40
2022-11-02T15:15:29.649Z,16.30
2022-11-02T15:17:56.603Z,16.20
2022-11-02T15:20:33.953Z,16.20
2022-11-02T15:23:29.868Z,16.10
2022-11-02T15:26:00.760Z,16.00
2022-11-02T15:28:33.012Z,16.00
2022-11-02T15:31:16.326Z,16.00
2022-11-02T15:33:49.531Z,16.00
2022-11-02T15:36:38.457Z,15.90
2022-11-02T15:39:08.940Z,15.90
2022-11-02T15:42:03.023Z,15.90
2022-11-02T15:44:57.462Z,15.80
2022-11-02T15:47:48.646Z,15.80
2022-11-02T15:50:27.520Z,15.70
2022-11-02T15:53:28.837Z,15.70
2022-11-02T15:56:13.505Z,15.60
2022-11-02T15:59:03.956Z,15.60
2022-11-02T16:01:31.222Z,15.50
2022-11-02T16:04:02.585Z,15.50
2022-11-02T16:06:39.392Z,15.40
2022-11-02T16:09:28.851Z,15.40
2022-11-02T16:12:19.681Z,15.40
2022-11-02T16:14:56.331Z,15.30
2022-11-02T16:17:29.102Z,15.30
2022-11-02T16:20:13.951Z,15.30
2022-11-02T16:22:41.609Z,15.20
2022-11-02T16:25:12.598Z,15.20
2022-11-02T16:27:41.064Z,15.20
2022-11-02T16:30:17.034Z,15.10
2022-11-02T16:32:46.185Z,15.10
2022-11-02T16:35:15.409Z,15.00
2022-11-02T16:37:44.280Z,15.10
2022-11-02T16:40:19.917Z,15.00
2022-11-02T16:42:50.023Z,15.00
2022-11-02T16:45:43.390Z,15.00
2022-11-02T16:48:17.254Z,14.90
2022-11-02T16:51:03.120Z,14.90
2022-11-02T16:53:33.187Z,14.80
2022-11-02T16:56:29.935Z,14.80
2022-11-02T16:59:05.740Z,14.80
2022-11-02T17:01:40.940Z,14.70
2022-11-02T17:04:22.203Z,14.70
2022-11-02T17:06:52.361Z,14.70
2022-11-02T17:09:31.633Z,14.60
2022-11-02T17:12:04.975Z,14.60
2022-11-02T17:14:33.621Z,14.50
2022-11-02T17:17:07.540Z,14.50
2022-11-02T17:19:41.134Z,14.40
2022-11-02T17:22:15.732Z,14.40
2022-11-02T17:24:42.812Z,14.40
2022-11-02T17:27:24.150Z,14.30
2022-11-02T17:29:55.420Z,14.30
2022-11-02T17:32:24.327Z,14.20
2022-11-02T17:34:57.428Z,14.20
2022-11-02T17:37:31.530Z,14.10
2022-11-02T17:40:03.174Z,14.10
2022-11-02T17:42:49.133Z,14.10
2022-11-02T17:45:37.935Z,14.10
2022-11-02T17:48:08.288Z,14.00
2022-11-02T17:50:37.831Z,14.00
2022-11-02T17:53:07.406Z,14.00
2022-11-02T17:55:37.678Z,13.90
2022-11-02T17:58:07.399Z,13.90
2022-11-02T18:00:37.182Z,13.80
2022-11-02T18:03:05.527Z,13.80
2022-11-02T18:05:37.849Z,13.80
2022-11-02T18:08:07.244Z,13.70
2022-11-02T18:10:39.275Z,13.70
2022-11-02T18:13:07.906Z,13.60
2022-11-02T18:15:35.305Z,13.60
2022-11-02T18:18:03.273Z,13.60
2022-11-02T18:20:33.481Z,13.50
2022-11-02T18:23:04.291Z,13.50
2022-11-02T18:25:33.411Z,13.40
2022-11-02T18:28:02.626Z,13.40
2022-11-02T18:30:31.275Z,13.30
2022-11-02T18:33:00.608Z,13.30
2022-11-02T18:35:28.258Z,13.30
2022-11-02T18:37:55.896Z,13.30
2022-11-02T18:40:23.713Z,13.30
2022-11-02T18:42:51.344Z,13.30
2022-11-02T18:45:19.619Z,13.20
2022-11-02T18:47:47.353Z,13.20
2022-11-02T18:50:15.214Z,13.10
2022-11-02T18:52:46.336Z,13.10
2022-11-02T18:55:14.264Z,13.00
2022-11-02T18:57:54.021Z,13.00
2022-11-02T19:00:22.019Z,12.90
2022-11-02T19:02:50.119Z,12.90
2022-11-02T19:05:36.179Z,12.80
2022-11-02T19:08:22.442Z,12.70
2022-11-02T19:10:51.255Z,12.60
2022-11-02T19:13:19.122Z,12.50
2022-11-02T19:15:46.832Z,12.50
2022-11-02T19:18:14.366Z,12.40
2022-11-02T19:20:41.895Z,12.40
2022-11-02T19:23:10.501Z,12.30
2022-11-02T19:25:38.754Z,12.30
2022-11-02T19:28:06.532Z,12.20
2022-11-02T19:30:34.355Z,12.10
2022-11-02T19:33:05.162Z,12.00
2022-11-02T19:35:32.619Z,12.00
2022-11-02T19:38:01.141Z,11.90
2022-11-02T19:40:28.996Z,11.90
2022-11-02T19:42:56.626Z,11.80
2022-11-02T19:45:25.638Z,11.80
2022-11-02T19:47:54.115Z,11.70
2022-11-02T19:50:23.413Z,11.60
2022-11-02T19:52:51.345Z,11.60
2022-11-02T19:55:23.487Z,11.50
2022-11-02T19:57:51.269Z,11.50
2022-11-02T20:00:19.545Z,11.50
2022-11-02T20:02:52.651Z,11.40
2022-11-02T20:05:20.524Z,11.40
2022-11-02T20:07:47.969Z,11.30
2022-11-02T20:10:15.673Z,11.30
2022-11-02T20:12:43.335Z,11.20
2022-11-02T20:15:12.701Z,11.20
2022-11-02T20:17:58.240Z,11.20
2022-11-02T20:20:26.896Z,11.10
2022-11-02T20:22:54.216Z,11.10
2022-11-02T20:25:23.532Z,11.00
2022-11-02T20:27:54.443Z,11.00
2022-11-02T20:30:22.826Z,11.00
2022-11-02T20:32:51.927Z,10.90
2022-11-02T20:35:23.625Z,10.90
2022-11-02T20:37:53.098Z,10.80
2022-11-02T20:40:20.941Z,10.80
2022-11-02T20:42:51.007Z,10.80
2022-11-02T20:45:19.264Z,10.70
2022-11-02T20:47:46.712Z,10.70
2022-11-02T20:50:16.752Z,10.60
2022-11-02T20:52:47.070Z,10.60
2022-11-02T20:55:14.881Z,10.50
2022-11-02T20:57:41.992Z,10.40
2022-11-02T21:00:11.739Z,10.40
2022-11-02T21:02:41.472Z,10.40
2022-11-02T21:05:10.994Z,10.40
2022-11-02T21:07:38.087Z,10.30
2022-11-02T21:10:07.650Z,10.30
2022-11-02T21:12:56.117Z,10.30
2022-11-02T21:15:23.612Z,10.20
2022-11-02T21:17:50.954Z,10.10
2022-11-02T21:20:34.948Z,10.10
2022-11-02T21:23:04.631Z,10.10
2022-11-02T21:25:33.659Z,10.10
2022-11-02T21:28:03.470Z,10.10
2022-11-02T21:30:34.304Z,10.00
2022-11-02T21:33:01.542Z,10.00
2022-11-02T21:35:28.783Z,9.90
2022-11-02T21:38:00.071Z,9.90
2022-11-02T21:40:29.793Z,9.80
2022-11-02T21:42:56.855Z,9.80
2022-11-02T21:45:26.207Z,9.80
2022-11-02T21:47:53.438Z,9.80
2022-11-02T21:50:20.547Z,9.80
2022-11-02T21:52:47.527Z,9.70
2022-11-02T21:55:14.617Z,9.60
2022-11-02T21:57:41.596Z,9.60
2022-11-02T22:00:09.328Z,9.60
2022-11-02T22:02:36.356Z,9.50
2022-11-02T22:05:03.528Z,9.50
2022-11-02T22:07:50.507Z,9.50
2022-11-02T22:10:17.486Z,9.50
2022-11-02T22:13:03.053Z,9.40
2022-11-02T22:15:32.285Z,9.40
2022-11-02T22:18:02.795Z,9.40
2022-11-02T22:20:29.775Z,9.30
2022-11-02T22:22:56.780Z,9.30
2022-11-02T22:25:23.744Z,9.30
2022-11-02T22:27:52.214Z,9.30
2022-11-02T22:30:19.201Z,9.20
2022-11-02T22:32:46.672Z,9.20
2022-11-02T22:35:14.131Z,9.20
2022-11-02T22:38:00.115Z,9.20
2022-11-02T22:40:27.316Z,9.30
2022-11-02T22:42:57.077Z,9.20
2022-11-02T22:45:24.118Z,9.20
2022-11-02T22:47:51.111Z,9.20
2022-11-02T22:50:18.608Z,9.10
2022-11-02T22:52:46.135Z,9.10
2022-11-02T22:55:13.174Z,9.10
2022-11-02T22:57:40.277Z,9.10
2022-11-02T23:00:07.856Z,9.10
2022-11-02T23:02:34.856Z,9.00
2022-11-02T23:05:01.895Z,9.00
2022-11-02T23:07:28.892Z,8.90
2022-11-02T23:09:55.872Z,8.90
2022-11-02T23:12:22.852Z,9.00
2022-11-02T23:14:49.845Z,9.00
2022-11-02T23:17:16.870Z,9.00
2022-11-02T23:19:45.067Z,9.00
2022-11-02T23:22:30.886Z,9.00
2022-11-02T23:25:11.920Z,9.00
2022-11-02T23:28:18.959Z,8.90
2022-11-02T23:31:04.773Z,8.90
2022-11-02T23:33:33.802Z,8.80
2022-11-02T23:36:14.012Z,8.80
2022-11-02T23:39:05.013Z,8.80
2022-11-02T23:41:34.308Z,8.70
2022-11-02T23:44:19.144Z,8.70
2022-11-02T23:46:51.121Z,8.60
2022-11-02T23:49:18.997Z,8.60
2022-11-02T23:52:04.795Z,8.50
2022-11-02T23:54:50.162Z,8.50
2022-11-02T23:57:17.346Z,8.50
2022-11-02T23:59:44.364Z,8.40
